Time;durP1;ratioP1;P1;durP2;ratioP2;P2;SDS_P1;SDS_P2;PMS_P1;PMS_P2;Temp;Humidity;BMP_temperature;BMP_pressure;BME280_temperature;BME280_humidity;BME280_pressure;Samples;Min_cycle;Max_cycle;Signal;HPM_P1;HPM_P2
2022/07/22 00:02:07;;;;;;;;;23.67;18.67;;;;;21.07;100.00;101586.97;4984157;28;46325;-75
2022/07/22 00:04:32;;;;;;;;;21.00;17.67;;;;;21.02;100.00;101582.19;4989790;28;46185;-76
2022/07/22 00:06:58;;;;;;;;;18.00;17.67;;;;;20.94;100.00;101577.91;4973042;28;45395;-77
2022/07/22 00:09:23;;;;;;;;;20.00;19.00;;;;;20.82;100.00;101563.22;4993868;28;45144;-76
2022/07/22 00:11:49;;;;;;;;;21.67;18.00;;;;;20.88;100.00;101586.44;5012782;28;46048;-76
2022/07/22 00:14:14;;;;;;;;;18.67;15.67;;;;;20.82;100.00;101585.53;4987782;28;47117;-76
2022/07/22 00:16:41;;;;;;;;;19.67;18.33;;;;;20.75;100.00;101576.53;4989135;28;45296;-77
2022/07/22 00:19:06;;;;;;;;;17.00;16.33;;;;;20.57;100.00;101547.81;4986754;28;45416;-76
2022/07/22 00:21:32;;;;;;;;;24.00;18.00;;;;;20.74;100.00;101588.78;4971634;28;45503;-76
2022/07/22 00:23:57;;;;;;;;;17.00;17.00;;;;;20.64;100.00;101579.13;4972577;28;47135;-75
2022/07/22 00:26:23;;;;;;;;;16.00;14.00;;;;;20.65;100.00;101585.53;4975900;28;44906;-77
2022/07/22 00:28:48;;;;;;;;;17.67;14.33;;;;;20.43;100.00;101555.69;5007550;28;45394;-77
2022/07/22 00:31:14;;;;;;;;;17.33;16.00;;;;;20.53;100.00;101571.69;4991114;28;45412;-77
2022/07/22 00:33:39;;;;;;;;;18.67;16.67;;;;;20.37;100.00;101559.47;4973614;28;46041;-78
2022/07/22 00:36:06;;;;;;;;;15.00;13.33;;;;;20.48;100.00;101571.63;4984041;28;44712;-79
2022/07/22 00:38:31;;;;;;;;;23.67;18.67;;;;;20.26;100.00;101552.06;4973001;28;45329;-75
2022/07/22 00:40:58;;;;;;;;;20.00;17.00;;;;;20.44;100.00;101584.38;4989229;28;45503;-76
2022/07/22 00:43:24;;;;;;;;;17.00;15.67;;;;;20.33;100.00;101561.09;4989578;28;45386;-77
2022/07/22 00:45:50;;;;;;;;;18.00;16.67;;;;;20.32;100.00;101547.44;4989213;28;45470;-77
2022/07/22 00:48:15;;;;;;;;;22.00;16.00;;;;;20.34;100.00;101561.94;4971575;28;45368;-76
2022/07/22 00:50:41;;;;;;;;;20.33;17.00;;;;;20.31;100.00;101568.03;5002452;28;45550;-76
2022/07/22 00:53:07;;;;;;;;;20.67;19.00;;;;;20.28;100.00;101561.88;4988223;28;46391;-75
2022/07/22 00:55:33;;;;;;;;;20.33;19.00;;;;;20.22;100.00;101554.50;4988260;28;45745;-76
2022/07/22 00:57:59;;;;;;;;;22.67;19.67;;;;;20.20;100.00;101551.13;4988731;28;45519;-77
2022/07/22 01:00:25;;;;;;;;;16.00;15.33;;;;;20.19;100.00;101565.31;4972895;28;46310;-74
2022/07/22 01:02:51;;;;;;;;;21.33;19.67;;;;;19.98;100.00;101541.84;4988580;28;45593;-77
2022/07/22 01:05:17;;;;;;;;;23.67;20.00;;;;;20.05;100.00;101560.09;4982239;28;45355;-76
2022/07/22 01:07:43;;;;;;;;;24.67;20.33;;;;;20.07;100.00;101557.03;4990824;28;45406;-77
2022/07/22 01:10:10;;;;;;;;;28.67;23.00;;;;;20.03;100.00;101561.41;4971477;28;46482;-78
2022/07/22 01:12:36;;;;;;;;;20.33;19.00;;;;;19.97;100.00;101552.16;4998265;28;46070;-77
2022/07/22 01:15:01;;;;;;;;;24.67;21.67;;;;;19.85;100.00;101552.22;4988161;28;45463;-78
2022/07/22 01:17:27;;;;;;;;;24.67;20.67;;;;;19.83;100.00;101548.00;4970074;28;45434;-77
2022/07/22 01:19:53;;;;;;;;;23.00;20.67;;;;;19.77;100.00;101538.69;4995111;28;45397;-77
2022/07/22 01:22:18;;;;;;;;;23.33;19.33;;;;;19.72;100.00;101533.03;4995509;28;45278;-77
2022/07/22 01:24:44;;;;;;;;;18.33;15.67;;;;;19.76;100.00;101548.16;5002240;28;44849;-76
2022/07/22 01:27:09;;;;;;;;;19.67;19.67;;;;;19.73;100.00;101546.69;4981117;28;45432;-76
2022/07/22 01:29:35;;;;;;;;;21.33;20.00;;;;;19.78;100.00;101554.34;5010400;28;45688;-76
2022/07/22 01:32:00;;;;;;;;;22.33;18.00;;;;;19.75;100.00;101563.16;4969667;28;47086;-76
2022/07/22 01:34:26;;;;;;;;;18.67;16.33;;;;;19.74;100.00;101562.28;4991628;28;44703;-77
2022/07/22 01:36:52;;;;;;;;;16.33;16.33;;;;;19.72;100.00;101558.09;5006307;28;45505;-74
2022/07/22 01:39:17;;;;;;;;;19.33;18.00;;;;;19.52;100.00;101514.88;4971317;28;45365;-76
2022/07/22 01:41:43;;;;;;;;;18.67;16.33;;;;;19.63;100.00;101540.13;4987228;28;45485;-77
2022/07/22 01:44:09;;;;;;;;;16.67;15.00;;;;;19.70;100.00;101551.91;4972301;28;45802;-76
2022/07/22 01:46:35;;;;;;;;;17.33;15.67;;;;;19.70;100.00;101551.91;4988131;28;45423;-77
2022/07/22 01:49:00;;;;;;;;;15.67;15.67;;;;;19.61;100.00;101536.72;4988236;28;45470;-77
2022/07/22 01:51:26;;;;;;;;;19.00;15.33;;;;;19.52;100.00;101534.34;4971783;28;47456;-76
2022/07/22 01:53:51;;;;;;;;;15.00;15.00;;;;;19.66;100.00;101547.97;4987195;28;45345;-78
2022/07/22 01:56:17;;;;;;;;;14.33;13.00;;;;;19.64;100.00;101550.13;4980357;28;45551;-77
2022/07/22 01:58:44;;;;;;;;;17.67;15.67;;;;;19.61;100.00;101539.50;4975978;28;45442;-77
2022/07/22 02:01:09;;;;;;;;;16.67;14.67;;;;;19.62;100.00;101543.97;4970512;28;47557;-77
2022/07/22 02:03:35;;;;;;;;;17.67;17.33;;;;;19.61;100.00;101533.94;4989474;28;44772;-78
2022/07/22 02:06:00;;;;;;;;;17.00;13.33;;;;;19.56;100.00;101529.97;4973745;28;45416;-76
2022/07/22 02:08:26;;;;;;;;;13.00;10.33;;;;;19.53;100.00;101532.41;4983169;28;45471;-76
2022/07/22 02:10:51;;;;;;;;;13.67;11.33;;;;;19.55;100.00;101536.63;4959753;28;46813;-76
2022/07/22 02:13:18;;;;;;;;;15.67;13.33;;;;;19.45;100.00;101530.88;4978936;28;45272;-76
2022/07/22 02:15:44;;;;;;;;;17.00;14.33;;;;;19.35;100.00;101506.47;4992980;28;44765;-79
2022/07/22 02:18:12;;;;;;;;;15.67;15.00;;;;;19.43;100.00;101530.28;4975200;28;44897;-77
2022/07/22 02:20:38;;;;;;;;;19.00;14.33;;;;;19.50;100.00;101542.09;4970815;28;47387;-77
2022/07/22 02:23:04;;;;;;;;;17.67;14.33;;;;;19.48;100.00;101535.94;4973393;28;45408;-77
2022/07/22 02:25:30;;;;;;;;;20.67;13.67;;;;;19.41;100.00;101524.94;4960913;28;45212;-77
2022/07/22 02:27:55;;;;;;;;;14.00;12.00;;;;;19.34;100.00;101528.97;4989272;28;45346;-76
2022/07/22 02:30:21;;;;;;;;;14.67;14.67;;;;;19.40;100.00;101541.88;4990821;28;45258;-78
2022/07/22 02:32:46;;;;;;;;;21.67;18.00;;;;;19.42;100.00;101550.84;4978577;28;45389;-76
2022/07/22 02:35:12;;;;;;;;;16.67;13.67;;;;;19.36;100.00;101537.94;4999547;28;45416;-76
2022/07/22 02:37:37;;;;;;;;;21.00;17.00;;;;;19.40;100.00;101550.22;4975224;28;45142;-77
2022/07/22 02:40:04;;;;;;;;;17.67;16.00;;;;;19.32;100.00;101537.56;4979990;28;45366;-78
2022/07/22 02:42:30;;;;;;;;;12.33;12.33;;;;;19.35;100.00;101556.53;4983205;28;45433;-77
2022/07/22 02:44:55;;;;;;;;;18.33;16.00;;;;;19.22;100.00;101529.03;4992751;28;45531;-77
2022/07/22 02:47:21;;;;;;;;;15.33;12.67;;;;;19.30;100.00;101550.91;4987380;28;45343;-77
2022/07/22 02:49:46;;;;;;;;;18.00;14.00;;;;;19.31;100.00;101543.38;4991806;28;45017;-75
2022/07/22 02:52:12;;;;;;;;;13.33;13.00;;;;;19.26;100.00;101538.56;4972088;28;45325;-76
2022/07/22 02:54:37;;;;;;;;;14.33;14.00;;;;;19.24;100.00;101526.88;4971893;28;45325;-77
2022/07/22 02:57:03;;;;;;;;;19.33;13.67;;;;;19.16;100.00;101519.75;4999760;28;45371;-77
2022/07/22 02:59:28;;;;;;;;;17.00;14.00;;;;;19.21;100.00;101530.97;4980636;28;46297;-77
2022/07/22 03:01:54;;;;;;;;;13.00;13.00;;;;;19.20;100.00;101537.63;4989634;28;45435;-79
2022/07/22 03:04:19;;;;;;;;;20.00;16.67;;;;;19.08;100.00;101522.09;4978795;28;45299;-78
2022/07/22 03:06:45;;;;;;;;;15.33;14.00;;;;;19.12;100.00;101528.84;4990418;28;45364;-79
2022/07/22 03:09:10;;;;;;;;;15.33;13.00;;;;;19.04;100.00;101524.50;4984989;28;45333;-77
2022/07/22 03:11:36;;;;;;;;;13.33;12.00;;;;;19.00;100.00;101529.72;4972192;28;45187;-76
2022/07/22 03:14:01;;;;;;;;;17.67;12.00;;;;;18.98;100.00;101534.69;4974023;28;44795;-77
2022/07/22 03:16:26;;;;;;;;;13.67;13.00;;;;;18.90;100.00;101518.38;4990931;28;45132;-77
2022/07/22 03:18:52;;;;;;;;;14.67;12.00;;;;;18.93;100.00;101530.94;4976762;28;46506;-76
2022/07/22 03:21:18;;;;;;;;;13.00;12.67;;;;;18.90;100.00;101535.06;4991918;28;45350;-77
2022/07/22 03:23:43;;;;;;;;;13.67;13.00;;;;;18.85;100.00;101541.34;4990814;28;45387;-78
2022/07/22 03:26:09;;;;;;;;;17.33;14.00;;;;;18.80;100.00;101530.13;4974007;28;45656;-77
2022/07/22 03:28:34;;;;;;;;;14.33;12.33;;;;;18.74;100.00;101525.50;4991493;28;45585;-76
2022/07/22 03:31:00;;;;;;;;;19.33;14.00;;;;;18.68;100.00;101530.13;4991871;28;45454;-80
2022/07/22 03:33:27;;;;;;;;;16.67;13.33;;;;;18.66;100.00;101531.47;4986361;28;45273;-77
2022/07/22 03:35:52;;;;;;;;;15.00;12.00;;;;;18.63;100.00;101538.34;4982256;28;45449;-76
2022/07/22 03:38:18;;;;;;;;;17.00;13.67;;;;;18.63;100.00;101543.91;4973520;28;47406;-76
2022/07/22 03:40:43;;;;;;;;;12.67;11.00;;;;;18.49;100.00;101529.41;4977903;28;45443;-78
2022/07/22 03:43:09;;;;;;;;;17.33;15.00;;;;;18.58;100.00;101535.47;4988941;28;45423;-76
2022/07/22 03:45:34;;;;;;;;;12.67;12.33;;;;;18.59;100.00;101547.41;5000079;28;45462;-75
2022/07/22 03:48:00;;;;;;;;;15.67;15.00;;;;;18.58;100.00;101546.56;4994237;28;44985;-77
2022/07/22 03:50:25;;;;;;;;;13.67;13.67;;;;;18.51;100.00;101549.47;4972690;28;45587;-78
2022/07/22 03:52:51;;;;;;;;;16.00;15.00;;;;;18.57;100.00;101544.03;4991370;28;45450;-78
2022/07/22 03:55:17;;;;;;;;;12.33;12.33;;;;;18.55;100.00;101548.97;5005690;28;45368;-77
2022/07/22 03:57:43;;;;;;;;;16.67;14.00;;;;;18.48;100.00;101530.50;5003504;28;46345;-78
2022/07/22 04:00:09;;;;;;;;;13.67;13.00;;;;;18.51;100.00;101546.69;4981479;28;45340;-77
2022/07/22 04:02:34;;;;;;;;;16.33;12.33;;;;;18.55;100.00;101547.06;4990312;28;45442;-76
2022/07/22 04:05:00;;;;;;;;;19.67;14.67;;;;;18.34;100.00;101512.41;4991119;28;45644;-77
2022/07/22 04:07:25;;;;;;;;;16.33;12.33;;;;;18.58;100.00;101552.13;4990422;28;46788;-78
2022/07/22 04:09:50;;;;;;;;;13.67;12.67;;;;;18.60;100.00;101543.53;4997854;28;45343;-79
2022/07/22 04:12:16;;;;;;;;;12.33;9.67;;;;;18.59;100.00;101541.84;5014539;28;45693;-78
2022/07/22 04:14:41;;;;;;;;;14.67;12.33;;;;;18.55;100.00;101532.31;4978314;28;44853;-77
2022/07/22 04:17:07;;;;;;;;;12.00;11.00;;;;;18.61;100.00;101531.34;5000344;28;47599;-76
2022/07/22 04:19:33;;;;;;;;;15.33;14.00;;;;;18.67;100.00;101534.00;4982500;28;45507;-77
2022/07/22 04:21:58;;;;;;;;;14.33;12.33;;;;;18.68;100.00;101530.13;4995907;28;44779;-78
2022/07/22 04:24:23;;;;;;;;;12.67;12.67;;;;;18.62;100.00;101514.44;4970766;28;45922;-78
2022/07/22 04:26:49;;;;;;;;;14.00;14.00;;;;;18.65;100.00;101510.31;4981584;28;45466;-77
2022/07/22 04:29:14;;;;;;;;;14.33;11.33;;;;;18.60;100.00;101497.16;4985942;28;45415;-77
2022/07/22 04:31:40;;;;;;;;;14.00;11.33;;;;;18.79;100.00;101522.84;4990202;28;45318;-77
2022/07/22 04:34:05;;;;;;;;;15.67;14.67;;;;;18.72;100.00;101497.13;4972865;28;46160;-77
2022/07/22 04:36:31;;;;;;;;;17.67;13.33;;;;;18.83;100.00;101506.53;4990592;28;46200;-79
2022/07/22 04:38:57;;;;;;;;;16.33;15.67;;;;;19.04;100.00;101524.50;4988488;28;45236;-77
2022/07/22 04:41:23;;;;;;;;;16.33;15.33;;;;;19.15;100.00;101520.00;4988686;28;45292;-77
2022/07/22 04:43:48;;;;;;;;;14.33;14.33;;;;;19.20;100.00;101495.06;4989113;28;44886;-75
2022/07/22 04:46:14;;;;;;;;;18.00;14.33;;;;;19.28;100.00;101488.25;4998315;28;46302;-77
2022/07/22 04:48:39;;;;;;;;;20.00;15.00;;;;;19.54;100.00;101497.94;4990420;28;45397;-77
2022/07/22 04:51:05;;;;;;;;;11.67;10.67;;;;;19.72;100.00;101494.06;4987901;28;45478;-80
2022/07/22 04:53:30;;;;;;;;;14.33;14.33;;;;;19.86;100.00;101478.75;4989370;28;45793;-79
2022/07/22 04:55:56;;;;;;;;;15.00;14.00;;;;;20.14;100.00;101485.31;4992078;28;45849;-76
2022/07/22 04:58:21;;;;;;;;;14.67;14.67;;;;;20.39;100.00;101478.41;4988115;28;45295;-76
2022/07/22 05:00:47;;;;;;;;;13.67;11.33;;;;;20.64;100.00;101466.78;4997347;28;45992;-76
2022/07/22 05:03:13;;;;;;;;;14.33;14.00;;;;;20.75;100.00;101440.75;4977309;28;45473;-76
2022/07/22 05:05:38;;;;;;;;;21.67;17.00;;;;;21.08;100.00;101457.59;4998746;28;45444;-76
2022/07/22 05:08:05;;;;;;;;;16.00;13.00;;;;;21.34;100.00;101448.34;4974939;28;45324;-76
2022/07/22 05:10:31;;;;;;;;;22.00;16.33;;;;;21.63;100.00;101444.47;4988241;28;45377;-75
2022/07/22 05:12:57;;;;;;;;;15.00;14.00;;;;;21.87;100.00;101433.75;4971852;28;44859;-76
2022/07/22 05:15:22;;;;;;;;;12.33;10.67;;;;;22.25;100.00;101445.75;4987453;28;46927;-75
2022/07/22 05:17:48;;;;;;;;;14.33;13.00;;;;;22.50;100.00;101435.81;4988635;28;44837;-77
2022/07/22 05:20:16;;;;;;;;;12.33;12.33;;;;;22.83;100.00;101428.13;4992174;28;45341;-79
2022/07/22 05:22:42;;;;;;;;;18.67;14.00;;;;;23.24;100.00;101428.25;4994811;28;45330;-78
2022/07/22 05:25:11;;;;;;;;;13.00;13.00;;;;;23.39;100.00;101391.88;5005115;28;46377;-79
2022/07/22 05:27:36;;;;;;;;;27.67;23.67;;;;;23.90;100.00;101415.41;4958766;28;45426;-75
2022/07/22 05:30:32;;;;;;;;;19.33;14.00;;;;;24.36;100.00;101406.88;4987746;28;45395;-79
2022/07/22 05:32:58;;;;;;;;;16.00;14.33;;;;;24.82;100.00;101398.28;4978129;28;46145;-77
2022/07/22 05:35:23;;;;;;;;;15.67;12.33;;;;;25.27;100.00;101391.78;4991957;28;45335;-79
2022/07/22 05:37:49;;;;;;;;;11.33;10.67;;;;;25.55;100.00;101382.63;4986619;28;45295;-78
2022/07/22 05:40:14;;;;;;;;;15.00;12.00;;;;;25.84;100.00;101392.16;4990013;28;44913;-75
2022/07/22 05:42:40;;;;;;;;;11.00;10.67;;;;;25.99;100.00;101399.63;4988456;28;45501;-75
2022/07/22 05:45:06;;;;;;;;;11.00;11.00;;;;;25.94;100.00;101399.66;4982056;28;45660;-75
2022/07/22 05:47:31;;;;;;;;;16.00;13.00;;;;;26.04;100.00;101388.34;4954258;28;45781;-75
2022/07/22 05:49:56;;;;;;;;;16.00;12.67;;;;;26.04;100.00;101405.22;4986859;28;45778;-76
2022/07/22 05:52:22;;;;;;;;;14.00;10.67;;;;;25.65;100.00;101394.88;4990148;28;45421;-76
2022/07/22 05:54:48;;;;;;;;;13.00;9.00;;;;;25.48;100.00;101378.44;4991023;28;45436;-76
2022/07/22 05:57:14;;;;;;;;;12.00;11.00;;;;;25.53;100.00;101407.34;4983651;28;45553;-75
2022/07/22 05:59:41;;;;;;;;;15.33;12.00;;;;;25.53;100.00;101381.22;4981667;28;45361;-79
2022/07/22 06:02:08;;;;;;;;;16.67;13.00;;;;;25.61;100.00;101385.38;4980461;28;45355;-71
2022/07/22 06:04:33;;;;;;;;;15.33;10.00;;;;;25.69;100.00;101379.94;4987618;28;45725;-75
2022/07/22 06:06:59;;;;;;;;;12.67;11.33;;;;;26.09;100.00;101388.28;4977017;28;45773;-74
2022/07/22 06:09:25;;;;;;;;;11.33;11.33;;;;;25.99;100.00;101352.69;4977994;28;45420;-75
2022/07/22 06:11:51;;;;;;;;;13.33;12.33;;;;;26.42;100.00;101380.00;4976684;28;45459;-76
2022/07/22 06:14:16;;;;;;;;;13.00;12.00;;;;;26.63;100.00;101386.19;4973052;28;46021;-76
2022/07/22 06:16:41;;;;;;;;;15.67;12.00;;;;;26.45;100.00;101392.63;4982360;28;45511;-77
2022/07/22 06:19:07;;;;;;;;;13.67;10.33;;;;;26.40;100.00;101393.53;4979247;28;45244;-75
2022/07/22 06:21:33;;;;;;;;;11.33;10.33;;;;;25.98;100.00;101387.53;4982839;28;45900;-76
2022/07/22 06:23:58;;;;;;;;;9.67;9.67;;;;;25.41;100.00;101401.28;4986044;28;45903;-76
2022/07/22 06:26:24;;;;;;;;;16.33;11.67;;;;;25.32;100.00;101380.56;4983349;28;45405;-75
2022/07/22 06:28:50;;;;;;;;;15.33;9.67;;;;;25.92;100.00;101376.66;4989650;28;45471;-76
2022/07/22 06:31:16;;;;;;;;;56.33;44.67;;;;;26.54;100.00;101379.56;4969871;28;45460;-76
2022/07/22 06:33:43;;;;;;;;;15.67;13.33;;;;;26.92;100.00;101380.47;4966588;28;46838;-77
2022/07/22 06:36:09;;;;;;;;;13.33;13.33;;;;;27.18;100.00;101363.16;4979827;28;45465;-76
2022/07/22 06:38:34;;;;;;;;;13.33;13.33;;;;;27.12;100.00;101375.66;4970609;28;45615;-76
2022/07/22 06:41:00;;;;;;;;;11.00;8.67;;;;;27.02;100.00;101382.31;4977414;28;45361;-75
2022/07/22 06:43:27;;;;;;;;;5.00;5.00;;;;;26.88;100.00;101387.84;4982150;28;45723;-76
2022/07/22 06:45:52;;;;;;;;;14.67;12.33;;;;;26.70;100.00;101385.88;4981607;28;44864;-73
2022/07/22 06:48:18;;;;;;;;;15.33;11.00;;;;;26.72;100.00;101366.69;4986726;28;45787;-75
2022/07/22 06:50:43;;;;;;;;;16.33;13.33;;;;;26.75;100.00;101382.97;4972002;28;45824;-76
2022/07/22 06:53:09;;;;;;;;;15.67;12.67;;;;;26.91;100.00;101392.84;4991417;28;45907;-75
2022/07/22 06:55:34;;;;;;;;;15.67;13.00;;;;;27.31;100.00;101401.81;4970817;28;45638;-75
2022/07/22 06:58:00;;;;;;;;;14.00;13.00;;;;;27.86;100.00;101403.19;4978844;28;45442;-75
2022/07/22 07:00:26;;;;;;;;;12.00;10.67;;;;;28.04;100.00;101389.31;4987064;28;45678;-75
2022/07/22 07:02:51;;;;;;;;;14.33;12.67;;;;;28.16;100.00;101406.59;4975599;28;45539;-78
2022/07/22 07:05:17;;;;;;;;;15.00;11.00;;;;;28.40;100.00;101392.28;4991287;28;45764;-76
2022/07/22 07:07:43;;;;;;;;;8.67;8.00;;;;;28.87;100.00;101397.75;4985131;28;45510;-77
2022/07/22 07:10:11;;;;;;;;;19.00;14.33;;;;;29.16;100.00;101385.22;4985846;28;45403;-74
2022/07/22 07:12:36;;;;;;;;;10.33;10.33;;;;;29.24;100.00;101381.66;4985193;28;45599;-75
2022/07/22 07:15:03;;;;;;;;;12.67;12.67;;;;;29.41;100.00;101376.13;4963848;28;45623;-79
2022/07/22 07:17:35;;;;;;;;;16.67;13.00;;;;;29.28;100.00;101360.06;4986709;28;45333;-83
2022/07/22 07:20:01;;;;;;;;;13.33;11.67;;;;;29.23;100.00;101357.38;4985250;28;45474;-75
2022/07/22 07:22:26;;;;;;;;;14.67;11.67;;;;;29.03;100.00;101345.41;4980252;28;45805;-75
2022/07/22 07:24:52;;;;;;;;;14.00;12.33;;;;;28.98;100.00;101356.84;4981494;28;46168;-75
2022/07/22 07:27:17;;;;;;;;;12.00;10.00;;;;;29.36;100.00;101364.97;4986420;28;45939;-74
2022/07/22 07:29:42;;;;;;;;;13.00;13.00;;;;;29.46;100.00;101357.38;4982383;28;45519;-75
2022/07/22 07:32:08;;;;;;;;;13.33;11.67;;;;;29.49;100.00;101353.91;4981198;28;45487;-75
2022/07/22 07:34:34;;;;;;;;;17.00;13.00;;;;;29.35;100.00;101357.63;4982299;28;45462;-76
2022/07/22 07:36:59;;;;;;;;;15.67;13.00;;;;;29.00;100.00;101346.06;4985945;28;45537;-76
2022/07/22 07:39:25;;;;;;;;;15.00;14.00;;;;;29.18;100.00;101360.31;4980672;28;45416;-73
2022/07/22 07:41:51;;;;;;;;;14.67;12.67;;;;;29.00;100.00;101365.81;4994128;28;46237;-74
2022/07/22 07:44:17;;;;;;;;;10.67;10.33;;;;;28.87;100.00;101375.19;4980682;28;45495;-75
2022/07/22 07:46:43;;;;;;;;;16.67;15.00;;;;;28.65;100.00;101376.81;4977882;28;45876;-75
2022/07/22 07:49:08;;;;;;;;;12.00;12.00;;;;;28.49;100.00;101369.81;4980406;28;45424;-76
2022/07/22 07:51:34;;;;;;;;;13.33;11.00;;;;;28.33;100.00;101378.56;4948195;28;45813;-73
2022/07/22 07:54:00;;;;;;;;;18.33;15.00;;;;;28.23;100.00;101372.31;4978287;28;46023;-73
2022/07/22 07:56:25;;;;;;;;;12.67;11.33;;;;;28.26;100.00;101380.16;4975140;28;45300;-75
2022/07/22 07:58:51;;;;;;;;;16.00;12.67;;;;;28.05;100.00;101385.38;4981020;28;45443;-74
2022/07/22 08:01:16;;;;;;;;;18.33;14.33;;;;;28.10;100.00;101385.25;4964691;28;47456;-75
2022/07/22 08:03:42;;;;;;;;;13.00;13.00;;;;;28.36;100.00;101375.13;4967993;28;45621;-75
2022/07/22 08:06:10;;;;;;;;;16.67;11.67;;;;;28.63;100.00;101362.16;4983296;28;45604;-78
2022/07/22 08:08:36;;;;;;;;;18.67;12.67;;;;;28.87;100.00;101363.88;4979558;28;45463;-81
2022/07/22 08:11:01;;;;;;;;;17.00;14.33;;;;;28.99;100.00;101375.44;4985323;28;45610;-75
2022/07/22 08:13:27;;;;;;;;;15.67;14.00;;;;;28.98;100.00;101368.16;4972949;28;45457;-76
2022/07/22 08:15:52;;;;;;;;;14.67;12.00;;;;;29.04;100.00;101355.56;4981645;28;45397;-76
2022/07/22 08:18:18;;;;;;;;;16.33;15.67;;;;;29.18;100.00;101363.16;4977918;28;45663;-75
2022/07/22 08:20:43;;;;;;;;;17.00;16.00;;;;;29.22;100.00;101367.00;4954656;28;46988;-75
2022/07/22 08:23:09;;;;;;;;;15.33;14.00;;;;;29.22;100.00;101361.34;4961776;28;45734;-77
2022/07/22 08:25:35;;;;;;;;;15.33;14.33;;;;;29.12;100.00;101355.94;4952386;28;45362;-76
2022/07/22 08:28:00;;;;;;;;;16.33;11.67;;;;;28.78;100.00;101358.16;4979453;28;45791;-76
2022/07/22 08:30:29;;;;;;;;;14.33;14.00;;;;;28.49;100.00;101356.50;4963149;28;46538;-75
2022/07/22 08:32:56;;;;;;;;;19.67;16.67;;;;;28.28;100.00;101356.13;4975042;28;45757;-75
2022/07/22 08:35:22;;;;;;;;;17.00;12.67;;;;;28.15;100.00;101359.78;4957044;28;46110;-75
2022/07/22 08:37:47;;;;;;;;;17.00;15.00;;;;;27.99;100.00;101356.44;4970112;28;45437;-75
2022/07/22 08:40:15;;;;;;;;;15.67;14.33;;;;;27.91;100.00;101365.59;4971900;28;47336;-78
2022/07/22 08:42:42;;;;;;;;;14.33;14.00;;;;;27.74;100.00;101363.34;4976554;28;45956;-76
2022/07/22 08:45:09;;;;;;;;;16.33;14.00;;;;;27.70;100.00;101351.06;4960863;28;45741;-74
2022/07/22 08:47:35;;;;;;;;;16.00;15.33;;;;;27.79;100.00;101344.38;4961089;28;45932;-76
2022/07/22 08:50:02;;;;;;;;;17.00;16.33;;;;;27.73;100.00;101330.72;4961052;28;47775;-75
2022/07/22 08:52:27;;;;;;;;;18.00;13.33;;;;;27.78;100.00;101328.59;4972270;28;45453;-77
2022/07/22 08:54:53;;;;;;;;;17.00;15.67;;;;;27.90;100.00;101310.34;4976233;28;45699;-75
2022/07/22 08:57:19;;;;;;;;;17.33;15.67;;;;;28.11;100.00;101307.97;4989902;28;45391;-76
2022/07/22 08:59:57;;;;;;;;;16.00;16.00;;;;;28.20;100.00;101291.16;4978580;28;47094;-80
2022/07/22 09:02:23;;;;;;;;;18.67;18.67;;;;;28.30;100.00;101274.81;4972174;28;45424;-75
2022/07/22 09:04:56;;;;;;;;;18.67;16.33;;;;;28.17;100.00;101258.75;4981041;28;45531;-74
2022/07/22 09:07:31;;;;;;;;;21.67;16.33;;;;;28.11;100.00;101237.47;4985953;28;45870;-77
2022/07/22 09:09:58;;;;;;;;;20.00;15.67;;;;;28.03;100.00;101246.69;4981037;28;46107;-76
2022/07/22 09:12:27;;;;;;;;;18.33;15.33;;;;;27.94;100.00;101260.66;4968220;28;45512;-76
2022/07/22 09:14:56;;;;;;;;;19.33;17.00;;;;;27.89;100.00;101278.50;4987471;28;45659;-75
2022/07/22 09:17:22;;;;;;;;;21.00;16.00;;;;;28.00;100.00;101281.97;4961509;28;45615;-76
2022/07/22 09:19:48;;;;;;;;;11.33;11.00;;;;;28.31;100.00;101307.53;4989752;28;46540;-76
2022/07/22 09:22:14;;;;;;;;;17.67;16.33;;;;;28.42;100.00;101327.06;4966002;28;45447;-76
2022/07/22 09:24:39;;;;;;;;;16.00;15.33;;;;;28.52;100.00;101344.59;4981042;28;45485;-76
2022/07/22 09:27:06;;;;;;;;;13.67;13.00;;;;;28.56;100.00;101339.13;4964183;28;45445;-76
2022/07/22 09:29:32;;;;;;;;;13.67;12.00;;;;;28.83;100.00;101329.81;4985925;28;45498;-77
2022/07/22 09:31:58;;;;;;;;;14.67;12.33;;;;;29.19;100.00;101326.09;4987833;28;45789;-76
2022/07/22 09:34:31;;;;;;;;;16.67;16.00;;;;;29.45;100.00;101319.81;4982844;28;45445;-77
2022/07/22 09:36:59;;;;;;;;;15.67;15.00;;;;;29.65;100.00;101337.38;4969156;28;45684;-76
2022/07/22 09:39:30;;;;;;;;;14.00;13.00;;;;;29.81;100.00;101324.50;4986100;28;46353;-77
2022/07/22 09:42:07;;;;;;;;;16.00;16.00;;;;;30.06;100.00;101311.63;4981892;28;45825;-77
2022/07/22 09:44:38;;;;;;;;;14.67;14.00;;;;;30.31;100.00;101299.88;4984632;28;45416;-77
2022/07/22 09:47:27;;;;;;;;;13.00;11.67;;;;;30.26;100.00;101295.22;4984572;28;45456;-76
2022/07/22 09:49:52;;;;;;;;;16.67;16.00;;;;;30.22;100.00;101294.19;4986368;28;45449;-77
2022/07/22 09:52:19;;;;;;;;;14.00;13.00;;;;;30.23;100.00;101310.00;4978935;28;45447;-75
2022/07/22 09:54:45;;;;;;;;;14.67;14.33;;;;;30.11;100.00;101302.97;4996577;28;45377;-77
2022/07/22 09:57:11;;;;;;;;;14.00;12.00;;;;;29.96;100.00;101311.94;4979038;28;45375;-77
2022/07/22 09:59:36;;;;;;;;;16.33;14.67;;;;;29.88;100.00;101319.22;4955846;28;45878;-77
2022/07/22 10:02:30;;;;;;;;;19.33;17.33;;;;;29.88;100.00;101327.72;4984240;28;45428;-81
2022/07/22 10:04:58;;;;;;;;;14.67;13.00;;;;;29.92;100.00;101316.56;4970620;28;45702;-76
2022/07/22 10:07:26;;;;;;;;;18.00;16.00;;;;;29.95;100.00;101292.47;4986678;28;44854;-77
2022/07/22 10:09:53;;;;;;;;;10.67;9.67;;;;;30.19;100.00;101314.66;4981198;28;46048;-77
2022/07/22 10:12:20;;;;;;;;;17.33;14.33;;;;;30.19;100.00;101304.16;4979128;28;45341;-77
2022/07/22 10:14:46;;;;;;;;;17.67;17.67;;;;;30.23;100.00;101310.84;4967160;28;45377;-77
2022/07/22 10:17:14;;;;;;;;;17.00;17.00;;;;;30.09;100.00;101312.94;4979798;28;45595;-78
2022/07/22 10:20:01;;;;;;;;;17.33;14.33;;;;;29.82;100.00;101299.88;4978796;28;45611;-82
2022/07/22 10:22:39;;;;;;;;;18.33;14.67;;;;;29.60;100.00;101295.94;4977470;28;45527;-77
2022/07/22 10:25:16;;;;;;;;;17.33;16.00;;;;;29.30;100.00;101294.75;4976963;28;45428;-76
2022/07/22 10:27:50;;;;;;;;;17.33;15.33;;;;;28.86;100.00;101286.81;4977798;28;45716;-78
2022/07/22 10:30:22;;;;;;;;;18.67;15.67;;;;;28.48;100.00;101295.59;4960020;28;47134;-75
2022/07/22 10:33:13;;;;;;;;;17.33;16.00;;;;;28.14;100.00;101293.25;4964390;28;45465;-77
2022/07/22 10:36:09;;;;;;;;;17.33;16.00;;;;;27.83;100.00;101286.22;4972705;28;45523;-78
2022/07/22 10:38:34;;;;;;;;;18.00;17.67;;;;;27.34;100.00;101270.84;4970512;28;46119;-78
2022/07/22 10:41:05;;;;;;;;;20.67;19.33;;;;;27.09;100.00;101289.81;4984921;28;46550;-76
2022/07/22 10:43:46;;;;;;;;;20.00;14.00;;;;;26.75;100.00;101276.88;4980161;28;45967;-77
2022/07/22 10:46:12;;;;;;;;;19.67;18.00;;;;;26.43;100.00;101275.63;4983590;28;45726;-76
2022/07/22 10:48:37;;;;;;;;;16.67;16.33;;;;;25.97;100.00;101258.53;4969939;28;45489;-81
2022/07/22 10:51:21;;;;;;;;;23.00;19.33;;;;;25.41;100.00;101257.22;4971446;28;45033;-83
2022/07/22 10:54:06;;;;;;;;;22.33;20.67;;;;;24.89;100.00;101242.81;4969642;28;45320;-82
2022/07/22 10:56:35;;;;;;;;;20.67;18.67;;;;;24.52;100.00;101244.16;4996375;28;45392;-82
2022/07/22 10:59:21;;;;;;;;;25.33;20.00;;;;;24.04;100.00;101197.94;4993250;28;46072;-82
2022/07/22 11:02:23;;;;;;;;;25.00;23.00;;;;;23.83;100.00;101241.16;4973375;28;45418;-79